Local Weather Ingen bokad jour idag Friday 25th of June
Flygplats METAR TAF
Airport METAR TAF
ESSL - Linköping251350Z AUTO 26004KT 9999 FEW009/// SCT017/// BKN025/// 18/15 Q1014=NO VALID TAF PUBLISHED
ESCF - Malmen251350Z AUTO 27007KT 9999 FEW013/// SCT018/// BKN022/// OVC031/// 18/15 Q1014=NO VALID TAF PUBLISHED
ESSP - Norrköping251350Z AUTO 34003KT 9999 BKN051/// 19/16 Q1014=NO VALID TAF PUBLISHED
ESGJ - Jönköping251350Z AUTO 26004KT 230V010 9999 FEW040/// SCT055/// 20/12 Q1015=250830Z 2509/2513 32008KT 9999 BKN040=
ESKN - Skavsta251350Z 25005KT 9999 FEW014 BKN045 19/17 Q1013=AMD 251228Z 2512/2612 VRB03KT 9999 SCT011 BKN050 TEMPO 2512/2514 BKN009 TEMPO 2512/2612 SHRA BKN020CB PROB40 2521/2604 2000 BR=
ESSV - Visby251350Z AUTO 25007KT 9999 BKN038/// OVC045/// 19/15 Q1013=251130Z 2512/2520 VRB03KT 9999 BKN025 TEMPO 2512/2520 SHRA BKN012 BKN020CB=
ESGG - Göteborg251350Z 25009KT 9999 SCT037 17/10 Q1016=251130Z 2512/2612 28008KT 9999 SCT030 PROB40 2522/2606 BKN004 PROB40 2606/2609 BKN012=
FLEET STATUS
Flygplan Tid till service Tid till flygstopp Flygtid Landningar
Aircraft To service To stop Total time Landings
SE-IUD-1.1 h3.9 h12 351.1 h25 303 st.
(1) Kortslutning kabel till platehållarplatta
SE-KIT35.5 h40.5 h12 514.5 h24 613 st.
(1) 3 av 12 dioder i landningsljus lyser ej
SE-KMH41.9 h46.9 h16 508.1 h61 555 st.
SE-LRL-8.6 h1.4 h1 258.6 h2 444 st.
(1) vänster dome lampa transit, höger pitotvärmelampa trasig
(2) ena ind lampan U/S för pitotvärme
SE-MEB48.3 h53.3 h1 701.7 h5 239 st.
SE-MEKN/AN/A3 742.0 h3 668 st.
(1) Båda brytkopplingarna är trasiga, byt båda två då koplingarna ofta går isär.
(2) Glappkontakt radio och interkom vänster sida.
PPR
Ankomst Avgång Flygplan Namn Bränsle
Arrival Departure Aircraft Name Fuel
NOTAM
>>> ESSL/LINKOPING/SAAB <<<
+ ILS OM RWY 11 U/S REPLACED BY NDB SC. FROM: 23 JUN 2021 09:14 TO: 31 JUL 2021 14:00 EST
+ AERODROME CONTROL TOWER (TWR) HOURS OF SERVICE ARE NOW MON 0400-1500, TUE 0515-1500, WED 0515-1630, THU 0400-1500, FRI 1500-1630, SAT 0400-0500, SUN 1500-1630 FROM: 21 JUN 2021 00:00 TO: 27 JUN 2021 23:59
+ TRIGGER NOTAM - PERM AIRAC AIP AMDT 3/21 WEF 17 JUN 2021. TMC REPLACED WITH APP, APCH LGT, RADIO NAVIGATION AND LANDING AIDS. FROM: 17 JUN 2021 00:00 TO: 30 JUN 2021 23:59
+ INFORMATION REGARDING PPR HOSP AND SAR FLIGHTS OUTSIDE HR OF AD ADMINISTRATION CONTACT JRCC FROM: 25 MAY 2021 10:09 TO: 25 AUG 2021 12:00 EST
+ IFR TRAINING AND SCHOOL FLIGHTS REQUIRE PPR FROM ATS FOR APCHS AND TGL. ATS TEL +46 (0)60646213 FROM: 25 MAY 2021 10:11 TO: 25 AUG 2021 12:00 EST
+ AERODROME CAUTION WORK IN PROGRESS S OF RWY 11/29 W OF TWY I AND N OF RWY11/29 E OF TWY L. TRAFFIC NOT AFFECTED. FROM: 25 MAY 2021 10:12 TO: 25 AUG 2021 12:00 EST
+ WIP CENTRELINE RWY 29 150M EAST OF THR. FROM: 06 MAY 2021 05:15 TO: 06 AUG 2021 10:00 EST
>>> ESSP/NORRKOPING/KUNGSANGEN <<<
+ FUEL AVAILABILITY HOURS OF SERVICE ARE NOW MON-THU 0600-1130, FRI-SUN CLSD FROM: 21 JUN 2021 00:00 TO: 27 JUN 2021 23:59
+ AERODROME CONTROL TOWER (TWR) HOURS OF SERVICE ARE NOW MON-THU 0600-1230, FRI-SUN CLSD FROM: 21 JUN 2021 00:00 TO: 27 JUN 2021 23:59
+ TRIGGER NOTAM - PERM AIRAC AIP AMDT 3/21 WEF 17 JUN 2021. TMC REPLACED WITH APP. OBST. FROM: 17 JUN 2021 00:00 TO: 30 JUN 2021 23:59
+ CRANE ERECTED IN APCH RWY 27 PSN 583732N 0163428E HGT 187FT AGL ELEV 210FT AMSL. OCA/OCH NOT AFFECTED FROM: 28 MAY 2021 04:00 TO: 25 SEP 2021 12:00
>>> ESCF/LINKOPING/MALMEN <<<
+ AERODROME CONTROL TOWER (TWR) CLSD FROM: 25 JUN 2021 00:00 TO: 25 JUN 2021 23:59
+ TRIGGER NOTAM - PERM AIRAC AIP AMDT 3/21 WEF 17 JUN 2021. TMC REPLACED WITH APP, FLIGHT PROCEDURES. FROM: 17 JUN 2021 00:00 TO: 30 JUN 2021 23:59